Weather observations for the past three days for
Sherman/Denison, Grayson County Airport
Imperial (Metric)
Date Time (cdt) Wind (mph) Vis. (mi.) Weather Sky Cond. Temperature (ºF) Relative Humidity Wind Chill (°F) Heat Index (°F) Pressure Precipitation (in)
Air Dwpt 6 hour altimeter (in) sea level (mb) 1 hr 3 hr 6 hr
Max. Min.
04 23:15 S 17 G 28 10.00 Fair CLR 72.9 62.8 71% 29.69 0.0
04 22:55 S 16 10.00 Fair CLR 72.7 62.8 71% 29.69 0.0
04 22:35 S 18 G 23 10.00 Fair CLR 72.9 62.8 71% 29.69 0.0
04 22:15 S 16 10.00 Fair CLR 72.9 62.6 70% 29.7 0.0
04 21:55 S 14 10.00 Fair CLR 72.7 62.2 70% 29.7 0.0
04 21:35 S 16 10.00 Fair CLR 73 62.2 69% 29.7 0.0
04 21:15 S 21 10.00 Fair and Breezy CLR 73.6 62.2 68% 29.69 0.0
04 20:55 S 16 10.00 Fair CLR 73.4 61.9 67% 29.69 0.0
04 20:35 S 14 10.00 Fair CLR 73.8 62.1 67% 29.69 0.0
04 20:15 S 13 10.00 Fair CLR 74.3 62.1 66% 29.68 0.0
04 19:55 S 15 10.00 Fair CLR 75 62.2 65% 77 29.68 0.0
04 19:35 S 17 10.00 Fair CLR 75.9 62.1 62% 78 29.69 0.0
04 19:15 S 16 10.00 Fair CLR 76.6 62.2 61% 78 29.7 0.0
04 18:50 S 16 10.00 Fair CLR 77 62.6 61% 79 29.69 0.0
04 17:50 S 18 10.00 Fair CLR 80.6 62.6 54% 82 29.72 0.0
04 16:50 S 18 G 26 10.00 Fair CLR 80.6 60.8 51% 81 29.73 0.0
04 15:50 S 21 G 26 10.00 Fair and Breezy CLR 80.6 60.8 51% 81 29.75 0.0
04 14:50 S 21 G 26 10.00 Fair and Breezy CLR 80.6 59 48% 81 29.79 0.0
04 13:50 S 22 G 28 10.00 Fair and Breezy CLR 78.8 59 51% 80 29.82 0.0
04 12:50 SW 21 G 28 10.00 Fair and Breezy CLR 75.2 55.4 50% 78 29.85 0.0
04 11:50 S 21 G 28 10.00 Fair and Breezy CLR 75.2 53.6 47% 78 29.88 0.0
04 09:50 S 21 G 28 10.00 Fair and Breezy CLR 69.8 53.6 57% 29.9 0.0
04 08:50 S 17 G 25 9.00 Fair CLR 66.2 53.6 64% 29.91 0.0
04 07:50 S 17 G 24 10.00 Fair CLR 64.4 51.8 64% 29.91 0.0
04 07:00 S 16 9.00 Fair CLR 60.8 51.8 72% 29.9 0.0
04 06:35 S 16 10.00 Fair CLR 61.5 52.3 72% 29.9 0.0
04 06:15 S 16 10.00 Fair CLR 61.7 52 71% 29.89 0.0
04 05:55 S 15 10.00 Fair CLR 62.1 51.4 68% 29.9 0.0
04 05:35 S 15 10.00 Fair CLR 62.2 50.7 66% 29.9 0.0
04 05:15 S 16 10.00 Fair CLR 62.8 50 63% 29.91 0.0
04 04:55 S 15 10.00 Fair CLR 62.8 49.1 61% 29.9 0.0
04 04:35 S 15 10.00 Fair CLR 63 48.6 60% 29.91 0.0
04 04:15 S 13 10.00 Fair CLR 62.6 48.6 60% 29.91 0.0
04 03:55 S 13 10.00 Fair CLR 62.8 48.7 60% 29.92 0.0
04 03:35 S 13 10.00 Fair CLR 62.1 49.1 63% 29.92 0.0
04 03:15 S 12 10.00 Fair CLR 62.2 48.9 62% 29.92 0.0
04 02:55 S 12 10.00 Fair CLR 61.3 49.3 65% 29.93 0.0
04 02:35 S 10 10.00 Fair CLR 61 49.3 66% 29.93 0.0
04 02:15 S 10 10.00 Fair CLR 60.6 49.3 66% 29.94 0.0
04 01:55 S 10 10.00 Fair CLR 60.8 48.9 65% 29.95 0.0
04 01:35 S 10 10.00 Fair CLR 60.4 48.7 66% 29.96 0.0
04 01:15 S 9 10.00 A Few Clouds FEW250 60.3 48.6 65% 29.97 0.0
04 00:55 S 9 10.00 A Few Clouds FEW250 62.2 48 77 62.2 60% 29.98 0.0
04 00:35 S 10 10.00 Fair CLR 62.6 48 59% 29.98 0.0
04 00:15 S 10 10.00 Fair CLR 62.2 48.2 60% 29.98 0.0
03 23:55 S 10 10.00 Fair CLR 62.6 48 59% 29.99 0.0
03 23:35 S 10 10.00 Fair CLR 62.4 48 59% 29.99 0.0
03 23:15 S 10 10.00 Fair CLR 62.6 47.7 58% 29.99 0.0
03 22:55 S 10 10.00 Fair CLR 63.5 47.3 56% 30 0.0
03 22:35 S 12 10.00 Fair CLR 63.7 47.1 55% 30 0.0
03 22:15 S 10 10.00 Fair CLR 65.1 46.8 52% 29.99 0.0
03 21:55 S 10 10.00 Fair CLR 64.6 47.3 54% 29.99 0.0
03 21:35 S 10 10.00 Fair CLR 64.8 47.3 53% 29.99 0.0
03 21:15 S 10 10.00 Fair CLR 65.3 47.5 53% 29.99 0.0
03 20:55 S 8 10.00 Fair CLR 64.6 47.8 55% 29.98 0.0
03 20:35 S 9 10.00 Fair CLR 65.5 47.7 53% 29.98 0.0
03 20:15 S 7 10.00 Fair CLR 67.6 47.8 49% 29.98 0.0
03 19:55 S 9 10.00 Fair CLR 72.3 47.8 42% 29.98 0.0
03 19:35 S 8 10.00 Fair CLR 74.3 48.2 40% 29.98 0.0
03 19:15 SW 8 10.00 Fair CLR 75.9 47.8 37% 78 29.98 0.0
03 18:50 SW 9 10.00 Fair CLR 77 46.4 34% 78 29.98 0.0
03 17:50 SW 12 10.00 Fair CLR 78.8 48.2 34% 79 30 0.0
03 16:50 SW 17 10.00 Fair CLR 80.6 46.4 30% 80 30.01 0.0
03 15:50 SW 14 G 20 10.00 Fair CLR 80.6 48.2 32% 80 30.04 0.0
03 14:50 SW 15 G 23 10.00 A Few Clouds FEW080 82.4 50 32% 81 30.07 0.0
03 12:50 SW 12 10.00 Fair CLR 77 53.6 44% 78 30.14 0.0
03 11:50 SW 12 10.00 Fair CLR 77 53.6 44% 78 30.14 0.0
03 10:50 SW 16 10.00 Fair CLR 73.4 51.8 47% 30.15 0.0
03 09:50 SW 14 10.00 Fair CLR 69.8 51.8 53% 30.15 0.0
03 08:50 SW 12 10.00 Fair CLR 64.4 50 60% 30.14 0.0
03 07:50 SW 12 10.00 Fair CLR 60.8 50 68% 30.14 0.0
03 06:35 SW 10 9.00 Fair CLR 57.4 48 71% 30.12 0.0
03 06:15 SW 10 10.00 Fair CLR 57 48 72% 30.12 0.0
03 05:55 SW 10 10.00 Fair CLR 57.4 48 71% 30.12 0.0
03 05:35 SW 10 10.00 Fair CLR 57.2 48.4 73% 30.12 0.0
03 05:15 SW 8 9.00 Fair CLR 56.7 48.7 75% 30.12 0.0
03 04:55 SW 9 10.00 Fair CLR 55.8 48.7 77% 30.12 0.0
03 04:35 SW 8 5.00 Fair with Haze CLR 55.8 48.6 77% 30.12 0.0
03 04:15 S 5 2.00 Fair with Haze CLR 55.6 47.8 75% 30.12 0.0
03 03:55 SW 5 1.75 Fair with Haze CLR 55.4 47.5 75% 30.12 0.0
03 03:35 SW 3 2.00 Fair with Haze CLR 55.9 46.9 72% 30.12 0.0
03 03:15 S 7 1.50 Fair with Haze CLR 56.3 46.4 70% 30.12 0.0
03 02:55 S 8 1.50 Fair with Haze CLR 55 46.8 74% 30.12 0.0
03 02:35 S 9 1.50 Fair with Haze CLR 54.7 46.9 75% 30.12 0.0
03 02:15 S 8 1.75 Fair with Haze CLR 55.6 47.3 74% 30.13 0.0
03 01:55 S 7 2.00 Fair with Haze CLR 56.3 47.7 73% 30.13 0.0
03 01:35 S 7 2.50 Fair with Haze CLR 57.2 48 72% 30.13 0.0
03 01:15 S 7 3.00 Fair with Haze CLR 57.7 48.4 71% 30.13 0.0
03 00:55 S 7 2.50 Fair with Haze CLR 60.4 47.8 72.9 57.7 63% 30.12 0.0
03 00:35 S 7 2.50 Fair with Haze CLR 60.4 47.8 63% 30.12 0.0
03 00:15 S 7 2.00 Fair with Haze CLR 60.4 47.7 63% 30.12 0.0
02 23:55 S 7 2.00 Fair with Haze CLR 58.1 48.9 72% 30.12 0.0
02 23:35 S 8 2.50 Fair with Haze CLR 59.5 48.6 67% 30.12 0.0
02 23:15 S 7 2.50 Fair with Haze CLR 59.4 48.6 68% 30.12 0.0
02 22:55 S 7 2.50 Fair with Haze CLR 60.6 48.9 66% 30.12 0.0
02 22:35 S 7 3.00 Fair with Haze CLR 61.7 48.9 63% 30.12 0.0
02 22:15 S 7 4.00 Fair with Haze CLR 62.4 49.1 62% 30.11 0.0
02 21:55 S 7 4.00 Fair with Haze CLR 62.8 49.3 62% 30.11 0.0
02 21:35 S 6 4.00 Fair with Haze CLR 63 49.3 61% 30.11 0.0
02 21:15 S 6 4.00 Fair with Haze CLR 64.8 48.7 56% 30.1 0.0
02 20:55 S 6 4.00 Fair with Haze CLR 64.8 49.6 58% 30.1 0.0
02 20:35 S 6 6.00 Fair with Haze CLR 66 49.8 56% 30.09 0.0
02 20:15 SE 5 7.00 Fair CLR 66.7 51.3 58% 30.09 0.0
02 19:55 NE 3 10.00 A Few Clouds FEW110 69.8 51.4 52% 30.08 0.0
02 19:35 Calm 10.00 Partly Cloudy SCT100 71.1 48.7 45% 30.08 0.0
02 19:15 Calm 10.00 Overcast OVC100 72.9 48 41% 30.08 0.0
02 18:50 Calm 10.00 Partly Cloudy SCT110 73.4 46.4 38% 30.09 0.0
02 17:25 Calm 10.00 Partly Cloudy SCT110 73.4 46.4 38% 30.09 0.0
02 16:50 Vrbl 6 10.00 Partly Cloudy SCT110 73.4 46.4 38% 30.1 0.0
02 15:50 W 5 10.00 Fair CLR 75.2 46.4 36% 77 30.13 0.0
02 14:50 W 7 10.00 Fair CLR 73.4 44.6 36% 30.15 0.0
02 13:50 W 9 10.00 Fair CLR 73.4 46.4 38% 30.16 0.0
02 12:50 Vrbl 3 10.00 Fair CLR 71.6 37.4 29% 30.19 0.0
02 11:50 Vrbl 3 10.00 Fair CLR 69.8 42.8 38% 30.2 0.0
02 10:50 NW 3 9.00 Fair CLR 66.2 44.6 46% 30.2 0.0
02 09:50 Vrbl 3 10.00 Fair CLR 62.6 46.4 56% 30.2 0.0
02 08:50 Calm 10.00 Fair CLR 57.2 51.8 82% 30.19 0.0
02 07:50 Calm 10.00 Fair CLR 50 48.2 94% 30.17 0.0
02 06:50 Calm 10.00 Fair CLR 44.6 42.8 93% 30.15 0.0
02 06:35 Calm 3.00 Fog/Mist CLR 45 43.2 93% 30.14 0.0
02 06:15 Calm 4.00 Fog/Mist CLR 44.8 43.2 94% 30.14 0.0
02 05:55 Calm 4.00 Fog/Mist CLR 44.8 43.3 95% 30.13 0.0
02 05:35 Calm 4.00 Fog/Mist CLR 44.8 42.8 93% 30.12 0.0
02 05:15 Calm 4.00 Fog/Mist CLR 48 44.2 87% 30.11 0.0
02 04:55 Calm 4.00 Fog/Mist SCT180 48 44.4 87% 30.11 0.0
02 04:35 Calm 4.00 Fog/Mist BKN180 46.9 44.2 90% 30.11 0.0
02 04:15 Calm 4.00 Fog/Mist BKN180 46.4 43.3 89% 30.11 0.0
02 03:55 Calm 4.00 Fog/Mist SCT180 46.9 44.2 90% 30.11 0.0
02 03:35 Calm 5.00 Fog/Mist CLR 47.3 44.4 90% 30.11 0.0
02 03:15 Calm 6.00 Fog/Mist CLR 47.8 44.6 89% 30.11 0.0
02 02:55 Calm 6.00 Fog/Mist CLR 47.3 45 92% 30.11 0.0
02 02:35 SW 5 6.00 Fog/Mist CLR 47.3 44.8 91% 46 30.11 0.0
02 02:15 SW 5 6.00 Fog/Mist CLR 47.7 44.6 89% 46 30.11 0.0
02 01:55 Calm 6.00 Fair with Haze CLR 49.5 45 85% 30.11 0.0
02 01:35 Calm 6.00 Fair with Haze CLR 53.2 44.1 71% 30.11 0.0
02 01:15 Calm 6.00 Fair with Haze CLR 53.4 44.4 72% 30.11 0.0
02 00:55 Calm 7.00 Fair CLR 53.1 43.7 64.9 51.6 71% 30.11 0.0
02 00:35 Calm 7.00 Fair CLR 54.3 42.6 65% 30.11 0.0
02 00:15 Calm 7.00 Fair CLR 54.9 42.8 64% 30.11 0.0
01 23:55 E 3 8.00 Fair CLR 56.7 44.1 63% 30.11 0.0
01 23:35 E 5 8.00 Fair CLR 55.9 45 67% 30.1 0.0
Date Time (cdt) Wind (mph) Vis. (mi.) Weather Sky Cond. Air Dwpt Max. Min. Relative Humidity Wind Chill (°F) Heat Index (°F) altimeter (in) sea level (mb) 1 hr 3 hr 6 hr
6 hour
Temperature (ºF) Pressure Precipitation (in)